sensor_id;sensor_type;location;lat;lon;timestamp;P1;durP1;ratioP1;P2;durP2;ratioP2
57313;SDS011;53202;50.976;18.216;2022-07-06T00:00:42;27.60;;;15.30;;
57313;SDS011;53202;50.976;18.216;2022-07-06T00:03:22;27.90;;;15.00;;
57313;SDS011;53202;50.976;18.216;2022-07-06T00:06:02;39.70;;;17.20;;
57313;SDS011;53202;50.976;18.216;2022-07-06T00:08:43;27.60;;;16.10;;
57313;SDS011;53202;50.976;18.216;2022-07-06T00:11:23;25.60;;;16.80;;
57313;SDS011;53202;50.976;18.216;2022-07-06T00:14:03;30.90;;;15.80;;
57313;SDS011;53202;50.976;18.216;2022-07-06T00:16:43;30.50;;;15.70;;
57313;SDS011;53202;50.976;18.216;2022-07-06T00:19:24;28.50;;;17.00;;
57313;SDS011;53202;50.976;18.216;2022-07-06T00:22:04;31.30;;;18.20;;
57313;SDS011;53202;50.976;18.216;2022-07-06T00:24:44;30.50;;;16.50;;
57313;SDS011;53202;50.976;18.216;2022-07-06T00:27:24;36.70;;;17.20;;
57313;SDS011;53202;50.976;18.216;2022-07-06T00:30:05;27.60;;;16.40;;
57313;SDS011;53202;50.976;18.216;2022-07-06T00:32:45;22.30;;;14.70;;
57313;SDS011;53202;50.976;18.216;2022-07-06T00:35:25;26.20;;;13.80;;
57313;SDS011;53202;50.976;18.216;2022-07-06T00:38:06;42.00;;;13.80;;
57313;SDS011;53202;50.976;18.216;2022-07-06T00:40:46;24.40;;;13.20;;
57313;SDS011;53202;50.976;18.216;2022-07-06T00:43:26;19.60;;;12.80;;
57313;SDS011;53202;50.976;18.216;2022-07-06T00:46:09;25.20;;;13.50;;
57313;SDS011;53202;50.976;18.216;2022-07-06T00:48:47;18.20;;;12.70;;
57313;SDS011;53202;50.976;18.216;2022-07-06T00:51:28;22.90;;;12.80;;
57313;SDS011;53202;50.976;18.216;2022-07-06T00:54:07;18.60;;;11.70;;
57313;SDS011;53202;50.976;18.216;2022-07-06T00:56:47;21.70;;;10.70;;
57313;SDS011;53202;50.976;18.216;2022-07-06T00:59:28;29.30;;;11.50;;
57313;SDS011;53202;50.976;18.216;2022-07-06T01:02:08;17.70;;;11.60;;
57313;SDS011;53202;50.976;18.216;2022-07-06T01:04:48;19.60;;;11.70;;
57313;SDS011;53202;50.976;18.216;2022-07-06T01:07:30;24.30;;;11.60;;
57313;SDS011;53202;50.976;18.216;2022-07-06T01:10:11;15.20;;;11.30;;
57313;SDS011;53202;50.976;18.216;2022-07-06T01:12:50;16.10;;;11.70;;
57313;SDS011;53202;50.976;18.216;2022-07-06T01:15:31;27.50;;;12.50;;
57313;SDS011;53202;50.976;18.216;2022-07-06T01:18:11;19.60;;;11.70;;
57313;SDS011;53202;50.976;18.216;2022-07-06T01:21:03;20.40;;;10.60;;
57313;SDS011;53202;50.976;18.216;2022-07-06T01:23:43;20.90;;;10.20;;
57313;SDS011;53202;50.976;18.216;2022-07-06T01:26:22;16.70;;;11.50;;
57313;SDS011;53202;50.976;18.216;2022-07-06T01:29:02;14.20;;;9.90;;
57313;SDS011;53202;50.976;18.216;2022-07-06T01:31:50;27.70;;;11.40;;
57313;SDS011;53202;50.976;18.216;2022-07-06T01:34:33;21.50;;;11.70;;
57313;SDS011;53202;50.976;18.216;2022-07-06T01:37:13;32.80;;;13.30;;
57313;SDS011;53202;50.976;18.216;2022-07-06T01:39:55;16.40;;;11.80;;
57313;SDS011;53202;50.976;18.216;2022-07-06T01:42:34;31.10;;;15.70;;
57313;SDS011;53202;50.976;18.216;2022-07-06T01:45:14;24.60;;;14.50;;
57313;SDS011;53202;50.976;18.216;2022-07-06T01:47:54;22.00;;;12.80;;
57313;SDS011;53202;50.976;18.216;2022-07-06T01:50:34;26.60;;;14.00;;
57313;SDS011;53202;50.976;18.216;2022-07-06T01:53:15;25.20;;;14.10;;
57313;SDS011;53202;50.976;18.216;2022-07-06T01:55:55;28.80;;;14.20;;
57313;SDS011;53202;50.976;18.216;2022-07-06T01:58:35;41.80;;;12.90;;
57313;SDS011;53202;50.976;18.216;2022-07-06T02:01:17;32.40;;;12.70;;
57313;SDS011;53202;50.976;18.216;2022-07-06T02:03:56;32.00;;;12.50;;
57313;SDS011;53202;50.976;18.216;2022-07-06T02:06:36;22.30;;;11.80;;
57313;SDS011;53202;50.976;18.216;2022-07-06T02:09:18;26.30;;;11.40;;
57313;SDS011;53202;50.976;18.216;2022-07-06T02:11:57;36.80;;;12.20;;
57313;SDS011;53202;50.976;18.216;2022-07-06T02:14:37;24.20;;;9.30;;
57313;SDS011;53202;50.976;18.216;2022-07-06T02:17:18;26.60;;;9.90;;
57313;SDS011;53202;50.976;18.216;2022-07-06T02:19:59;23.60;;;9.30;;
57313;SDS011;53202;50.976;18.216;2022-07-06T02:22:40;21.10;;;7.90;;
57313;SDS011;53202;50.976;18.216;2022-07-06T02:25:20;22.60;;;7.50;;
57313;SDS011;53202;50.976;18.216;2022-07-06T02:28:00;23.20;;;7.80;;
57313;SDS011;53202;50.976;18.216;2022-07-06T02:30:40;18.50;;;6.50;;
57313;SDS011;53202;50.976;18.216;2022-07-06T02:33:21;19.50;;;7.40;;
57313;SDS011;53202;50.976;18.216;2022-07-06T02:36:01;14.40;;;7.10;;
57313;SDS011;53202;50.976;18.216;2022-07-06T02:38:41;56.70;;;40.80;;
57313;SDS011;53202;50.976;18.216;2022-07-06T02:41:22;58.70;;;44.20;;
57313;SDS011;53202;50.976;18.216;2022-07-06T02:44:02;53.00;;;28.90;;
57313;SDS011;53202;50.976;18.216;2022-07-06T02:46:42;106.50;;;47.30;;
57313;SDS011;53202;50.976;18.216;2022-07-06T02:49:23;74.70;;;32.80;;
57313;SDS011;53202;50.976;18.216;2022-07-06T02:52:03;42.50;;;17.80;;
57313;SDS011;53202;50.976;18.216;2022-07-06T02:54:43;25.00;;;13.50;;
57313;SDS011;53202;50.976;18.216;2022-07-06T02:57:23;16.30;;;8.90;;
57313;SDS011;53202;50.976;18.216;2022-07-06T03:00:04;18.30;;;10.00;;
57313;SDS011;53202;50.976;18.216;2022-07-06T03:02:44;15.10;;;8.00;;
57313;SDS011;53202;50.976;18.216;2022-07-06T03:05:24;18.90;;;8.60;;
57313;SDS011;53202;50.976;18.216;2022-07-06T03:08:04;31.60;;;11.70;;
57313;SDS011;53202;50.976;18.216;2022-07-06T03:10:45;56.90;;;15.50;;
57313;SDS011;53202;50.976;18.216;2022-07-06T03:13:26;53.90;;;15.20;;
57313;SDS011;53202;50.976;18.216;2022-07-06T03:16:05;43.80;;;12.50;;
57313;SDS011;53202;50.976;18.216;2022-07-06T03:18:46;25.90;;;10.00;;
57313;SDS011;53202;50.976;18.216;2022-07-06T03:21:26;36.00;;;10.60;;
57313;SDS011;53202;50.976;18.216;2022-07-06T03:24:06;29.80;;;11.80;;
57313;SDS011;53202;50.976;18.216;2022-07-06T03:26:47;24.50;;;13.20;;
57313;SDS011;53202;50.976;18.216;2022-07-06T03:29:27;32.30;;;14.10;;
57313;SDS011;53202;50.976;18.216;2022-07-06T03:32:07;25.60;;;13.00;;
57313;SDS011;53202;50.976;18.216;2022-07-06T03:34:47;22.90;;;16.10;;
57313;SDS011;53202;50.976;18.216;2022-07-06T03:37:28;22.00;;;15.80;;
57313;SDS011;53202;50.976;18.216;2022-07-06T03:40:08;21.60;;;15.90;;
57313;SDS011;53202;50.976;18.216;2022-07-06T03:42:48;17.20;;;15.20;;
57313;SDS011;53202;50.976;18.216;2022-07-06T03:45:29;14.80;;;13.40;;
57313;SDS011;53202;50.976;18.216;2022-07-06T03:48:09;15.70;;;13.80;;
57313;SDS011;53202;50.976;18.216;2022-07-06T03:50:49;16.70;;;13.40;;
57313;SDS011;53202;50.976;18.216;2022-07-06T03:53:30;21.10;;;14.60;;
57313;SDS011;53202;50.976;18.216;2022-07-06T03:56:10;24.30;;;14.90;;
57313;SDS011;53202;50.976;18.216;2022-07-06T03:59:10;27.00;;;18.60;;
57313;SDS011;53202;50.976;18.216;2022-07-06T04:01:50;25.60;;;16.00;;
57313;SDS011;53202;50.976;18.216;2022-07-06T04:04:31;15.50;;;13.80;;
57313;SDS011;53202;50.976;18.216;2022-07-06T04:07:11;22.10;;;14.00;;
57313;SDS011;53202;50.976;18.216;2022-07-06T04:09:51;26.40;;;17.30;;
57313;SDS011;53202;50.976;18.216;2022-07-06T04:12:32;22.00;;;18.40;;
57313;SDS011;53202;50.976;18.216;2022-07-06T04:15:12;25.50;;;20.50;;
57313;SDS011;53202;50.976;18.216;2022-07-06T04:17:52;24.60;;;18.80;;
57313;SDS011;53202;50.976;18.216;2022-07-06T04:20:32;18.20;;;15.80;;
57313;SDS011;53202;50.976;18.216;2022-07-06T04:23:13;20.70;;;14.10;;
57313;SDS011;53202;50.976;18.216;2022-07-06T04:25:53;26.50;;;15.10;;
57313;SDS011;53202;50.976;18.216;2022-07-06T04:28:33;28.60;;;15.20;;
57313;SDS011;53202;50.976;18.216;2022-07-06T04:31:14;34.10;;;15.30;;
57313;SDS011;53202;50.976;18.216;2022-07-06T04:33:54;24.90;;;15.00;;
57313;SDS011;53202;50.976;18.216;2022-07-06T04:36:34;26.80;;;14.10;;
57313;SDS011;53202;50.976;18.216;2022-07-06T04:39:14;23.10;;;13.10;;
57313;SDS011;53202;50.976;18.216;2022-07-06T04:41:55;26.80;;;12.80;;
57313;SDS011;53202;50.976;18.216;2022-07-06T04:44:35;26.90;;;13.40;;
57313;SDS011;53202;50.976;18.216;2022-07-06T04:47:15;22.00;;;13.50;;
57313;SDS011;53202;50.976;18.216;2022-07-06T04:49:56;19.00;;;13.00;;
57313;SDS011;53202;50.976;18.216;2022-07-06T04:52:36;24.90;;;13.70;;
57313;SDS011;53202;50.976;18.216;2022-07-06T04:55:17;24.20;;;13.60;;
57313;SDS011;53202;50.976;18.216;2022-07-06T04:57:57;23.80;;;13.30;;
57313;SDS011;53202;50.976;18.216;2022-07-06T05:00:37;22.20;;;13.50;;
57313;SDS011;53202;50.976;18.216;2022-07-06T05:03:17;21.50;;;13.20;;
57313;SDS011;53202;50.976;18.216;2022-07-06T05:05:57;18.90;;;13.40;;
57313;SDS011;53202;50.976;18.216;2022-07-06T05:08:37;16.70;;;11.90;;
57313;SDS011;53202;50.976;18.216;2022-07-06T05:11:18;26.30;;;12.60;;
57313;SDS011;53202;50.976;18.216;2022-07-06T05:13:58;24.20;;;12.70;;
57313;SDS011;53202;50.976;18.216;2022-07-06T05:16:38;19.80;;;12.30;;
57313;SDS011;53202;50.976;18.216;2022-07-06T05:19:18;20.80;;;12.20;;
57313;SDS011;53202;50.976;18.216;2022-07-06T05:21:59;17.10;;;12.10;;
57313;SDS011;53202;50.976;18.216;2022-07-06T05:24:39;18.00;;;11.70;;
57313;SDS011;53202;50.976;18.216;2022-07-06T05:27:19;16.30;;;12.30;;
57313;SDS011;53202;50.976;18.216;2022-07-06T05:29:59;13.90;;;11.30;;
57313;SDS011;53202;50.976;18.216;2022-07-06T05:32:40;16.50;;;11.30;;
57313;SDS011;53202;50.976;18.216;2022-07-06T05:35:20;15.20;;;12.70;;
57313;SDS011;53202;50.976;18.216;2022-07-06T05:38:00;16.20;;;13.90;;
57313;SDS011;53202;50.976;18.216;2022-07-06T05:40:40;18.90;;;14.90;;
57313;SDS011;53202;50.976;18.216;2022-07-06T05:43:23;21.40;;;15.30;;
57313;SDS011;53202;50.976;18.216;2022-07-06T05:46:00;19.60;;;15.20;;
57313;SDS011;53202;50.976;18.216;2022-07-06T05:48:41;17.50;;;15.70;;
57313;SDS011;53202;50.976;18.216;2022-07-06T05:51:41;20.20;;;15.60;;
57313;SDS011;53202;50.976;18.216;2022-07-06T05:54:21;19.20;;;15.80;;
57313;SDS011;53202;50.976;18.216;2022-07-06T05:57:01;19.80;;;15.20;;
57313;SDS011;53202;50.976;18.216;2022-07-06T05:59:41;18.30;;;15.10;;
57313;SDS011;53202;50.976;18.216;2022-07-06T06:02:22;21.20;;;15.80;;
57313;SDS011;53202;50.976;18.216;2022-07-06T06:05:02;45.60;;;19.90;;
57313;SDS011;53202;50.976;18.216;2022-07-06T06:07:42;24.20;;;17.90;;
57313;SDS011;53202;50.976;18.216;2022-07-06T06:10:23;26.80;;;20.00;;
57313;SDS011;53202;50.976;18.216;2022-07-06T06:13:03;28.30;;;21.80;;
57313;SDS011;53202;50.976;18.216;2022-07-06T06:15:43;29.30;;;22.60;;
57313;SDS011;53202;50.976;18.216;2022-07-06T06:18:23;43.70;;;21.30;;
57313;SDS011;53202;50.976;18.216;2022-07-06T06:21:03;22.40;;;18.70;;
57313;SDS011;53202;50.976;18.216;2022-07-06T06:23:43;26.00;;;19.40;;
57313;SDS011;53202;50.976;18.216;2022-07-06T06:26:24;33.70;;;17.80;;
57313;SDS011;53202;50.976;18.216;2022-07-06T06:29:04;30.50;;;18.00;;
57313;SDS011;53202;50.976;18.216;2022-07-06T06:31:44;21.90;;;16.50;;
57313;SDS011;53202;50.976;18.216;2022-07-06T06:34:24;21.60;;;15.50;;
57313;SDS011;53202;50.976;18.216;2022-07-06T06:37:04;27.10;;;14.90;;
57313;SDS011;53202;50.976;18.216;2022-07-06T06:39:45;23.90;;;12.50;;
57313;SDS011;53202;50.976;18.216;2022-07-06T06:42:25;18.80;;;11.10;;
57313;SDS011;53202;50.976;18.216;2022-07-06T06:45:05;15.40;;;10.70;;
57313;SDS011;53202;50.976;18.216;2022-07-06T06:47:45;15.90;;;11.20;;
57313;SDS011;53202;50.976;18.216;2022-07-06T06:50:25;15.10;;;10.90;;
57313;SDS011;53202;50.976;18.216;2022-07-06T06:53:06;10.60;;;8.70;;
57313;SDS011;53202;50.976;18.216;2022-07-06T06:55:46;12.10;;;9.00;;
57313;SDS011;53202;50.976;18.216;2022-07-06T06:58:26;14.50;;;8.40;;
57313;SDS011;53202;50.976;18.216;2022-07-06T07:01:06;17.70;;;8.60;;
57313;SDS011;53202;50.976;18.216;2022-07-06T07:03:46;16.50;;;6.80;;
57313;SDS011;53202;50.976;18.216;2022-07-06T07:06:26;9.70;;;6.70;;
57313;SDS011;53202;50.976;18.216;2022-07-06T07:09:06;11.90;;;6.80;;
57313;SDS011;53202;50.976;18.216;2022-07-06T07:11:46;8.90;;;6.40;;
57313;SDS011;53202;50.976;18.216;2022-07-06T07:14:27;12.10;;;7.00;;
57313;SDS011;53202;50.976;18.216;2022-07-06T07:17:07;10.80;;;6.10;;
57313;SDS011;53202;50.976;18.216;2022-07-06T07:19:47;15.70;;;5.60;;
57313;SDS011;53202;50.976;18.216;2022-07-06T07:22:27;14.60;;;7.10;;
57313;SDS011;53202;50.976;18.216;2022-07-06T07:25:08;12.90;;;7.70;;
57313;SDS011;53202;50.976;18.216;2022-07-06T07:27:48;9.90;;;6.70;;
57313;SDS011;53202;50.976;18.216;2022-07-06T07:30:28;11.70;;;6.50;;
57313;SDS011;53202;50.976;18.216;2022-07-06T07:33:09;11.90;;;6.70;;
57313;SDS011;53202;50.976;18.216;2022-07-06T07:35:49;12.20;;;6.70;;
57313;SDS011;53202;50.976;18.216;2022-07-06T07:38:29;14.90;;;7.70;;
57313;SDS011;53202;50.976;18.216;2022-07-06T07:41:09;8.60;;;6.80;;
57313;SDS011;53202;50.976;18.216;2022-07-06T07:43:50;14.70;;;7.50;;
57313;SDS011;53202;50.976;18.216;2022-07-06T07:46:30;13.00;;;7.90;;
57313;SDS011;53202;50.976;18.216;2022-07-06T07:49:10;20.00;;;9.70;;
57313;SDS011;53202;50.976;18.216;2022-07-06T07:51:50;15.50;;;8.70;;
57313;SDS011;53202;50.976;18.216;2022-07-06T07:54:31;18.50;;;10.00;;
57313;SDS011;53202;50.976;18.216;2022-07-06T07:57:11;14.40;;;10.20;;
57313;SDS011;53202;50.976;18.216;2022-07-06T07:59:51;12.40;;;9.70;;
57313;SDS011;53202;50.976;18.216;2022-07-06T08:02:32;13.50;;;10.80;;
57313;SDS011;53202;50.976;18.216;2022-07-06T08:05:12;14.60;;;11.00;;
57313;SDS011;53202;50.976;18.216;2022-07-06T08:07:52;14.40;;;11.60;;
57313;SDS011;53202;50.976;18.216;2022-07-06T08:10:32;13.80;;;12.20;;
57313;SDS011;53202;50.976;18.216;2022-07-06T08:13:12;14.10;;;11.60;;
57313;SDS011;53202;50.976;18.216;2022-07-06T08:15:53;20.00;;;13.20;;
57313;SDS011;53202;50.976;18.216;2022-07-06T08:18:36;21.30;;;13.10;;
57313;SDS011;53202;50.976;18.216;2022-07-06T08:21:16;17.00;;;14.20;;
57313;SDS011;53202;50.976;18.216;2022-07-06T08:23:56;23.70;;;16.40;;
57313;SDS011;53202;50.976;18.216;2022-07-06T08:26:36;23.30;;;17.10;;
57313;SDS011;53202;50.976;18.216;2022-07-06T08:29:17;19.30;;;16.10;;
57313;SDS011;53202;50.976;18.216;2022-07-06T08:31:57;17.60;;;13.20;;
57313;SDS011;53202;50.976;18.216;2022-07-06T08:34:37;16.20;;;14.50;;
57313;SDS011;53202;50.976;18.216;2022-07-06T08:37:18;18.40;;;14.60;;
57313;SDS011;53202;50.976;18.216;2022-07-06T08:39:58;15.90;;;14.30;;
57313;SDS011;53202;50.976;18.216;2022-07-06T08:42:38;17.10;;;13.00;;
57313;SDS011;53202;50.976;18.216;2022-07-06T08:45:19;14.60;;;11.90;;
57313;SDS011;53202;50.976;18.216;2022-07-06T08:48:02;15.10;;;13.30;;
57313;SDS011;53202;50.976;18.216;2022-07-06T08:50:39;91.90;;;21.20;;
57313;SDS011;53202;50.976;18.216;2022-07-06T08:53:20;36.50;;;12.90;;
57313;SDS011;53202;50.976;18.216;2022-07-06T08:56:01;18.60;;;12.30;;
57313;SDS011;53202;50.976;18.216;2022-07-06T08:58:40;18.50;;;13.20;;
57313;SDS011;53202;50.976;18.216;2022-07-06T09:01:20;16.30;;;13.70;;
57313;SDS011;53202;50.976;18.216;2022-07-06T09:04:01;26.10;;;15.10;;
57313;SDS011;53202;50.976;18.216;2022-07-06T09:06:42;102.40;;;19.10;;
57313;SDS011;53202;50.976;18.216;2022-07-06T09:09:22;184.10;;;29.00;;
57313;SDS011;53202;50.976;18.216;2022-07-06T09:12:01;10.00;;;8.10;;
57313;SDS011;53202;50.976;18.216;2022-07-06T09:14:41;16.80;;;8.60;;
57313;SDS011;53202;50.976;18.216;2022-07-06T09:17:25;12.50;;;8.10;;
57313;SDS011;53202;50.976;18.216;2022-07-06T09:20:02;28.10;;;8.60;;
57313;SDS011;53202;50.976;18.216;2022-07-06T09:22:42;12.10;;;5.60;;
57313;SDS011;53202;50.976;18.216;2022-07-06T09:25:22;5.30;;;4.70;;
57313;SDS011;53202;50.976;18.216;2022-07-06T09:28:03;8.10;;;3.70;;
57313;SDS011;53202;50.976;18.216;2022-07-06T09:30:45;3.90;;;3.30;;
57313;SDS011;53202;50.976;18.216;2022-07-06T09:33:26;5.20;;;2.20;;
57313;SDS011;53202;50.976;18.216;2022-07-06T09:36:06;7.90;;;2.20;;
57313;SDS011;53202;50.976;18.216;2022-07-06T09:38:46;2.80;;;2.20;;
57313;SDS011;53202;50.976;18.216;2022-07-06T09:41:30;6.30;;;2.10;;
57313;SDS011;53202;50.976;18.216;2022-07-06T09:44:07;2.40;;;2.00;;
57313;SDS011;53202;50.976;18.216;2022-07-06T09:46:47;4.50;;;2.40;;
57313;SDS011;53202;50.976;18.216;2022-07-06T09:49:27;4.10;;;2.60;;
57313;SDS011;53202;50.976;18.216;2022-07-06T09:52:08;9.80;;;2.90;;
57313;SDS011;53202;50.976;18.216;2022-07-06T09:54:48;8.70;;;2.70;;
57313;SDS011;53202;50.976;18.216;2022-07-06T09:57:28;8.60;;;2.50;;
57313;SDS011;53202;50.976;18.216;2022-07-06T10:00:08;5.20;;;1.90;;
57313;SDS011;53202;50.976;18.216;2022-07-06T10:02:48;5.80;;;2.20;;
57313;SDS011;53202;50.976;18.216;2022-07-06T10:05:29;6.50;;;2.20;;
57313;SDS011;53202;50.976;18.216;2022-07-06T10:08:09;3.70;;;2.10;;
57313;SDS011;53202;50.976;18.216;2022-07-06T10:10:49;5.30;;;2.40;;
57313;SDS011;53202;50.976;18.216;2022-07-06T10:13:29;4.10;;;2.20;;
57313;SDS011;53202;50.976;18.216;2022-07-06T10:16:10;5.50;;;1.90;;
57313;SDS011;53202;50.976;18.216;2022-07-06T10:18:51;5.60;;;2.40;;
57313;SDS011;53202;50.976;18.216;2022-07-06T10:21:30;3.70;;;2.70;;
57313;SDS011;53202;50.976;18.216;2022-07-06T10:24:11;4.20;;;2.90;;
57313;SDS011;53202;50.976;18.216;2022-07-06T10:26:51;7.50;;;2.90;;
57313;SDS011;53202;50.976;18.216;2022-07-06T10:29:31;5.30;;;2.60;;
57313;SDS011;53202;50.976;18.216;2022-07-06T10:32:11;8.00;;;2.90;;
57313;SDS011;53202;50.976;18.216;2022-07-06T10:34:54;6.60;;;3.00;;
57313;SDS011;53202;50.976;18.216;2022-07-06T10:37:34;4.00;;;2.90;;
57313;SDS011;53202;50.976;18.216;2022-07-06T10:40:14;5.90;;;3.00;;
57313;SDS011;53202;50.976;18.216;2022-07-06T10:43:15;5.90;;;3.40;;
57313;SDS011;53202;50.976;18.216;2022-07-06T10:45:55;5.70;;;3.80;;
57313;SDS011;53202;50.976;18.216;2022-07-06T10:48:36;5.80;;;3.50;;
57313;SDS011;53202;50.976;18.216;2022-07-06T10:51:23;6.90;;;3.50;;
57313;SDS011;53202;50.976;18.216;2022-07-06T10:54:06;7.20;;;3.60;;
57313;SDS011;53202;50.976;18.216;2022-07-06T10:56:48;6.10;;;4.00;;
57313;SDS011;53202;50.976;18.216;2022-07-06T10:59:26;6.90;;;3.60;;
57313;SDS011;53202;50.976;18.216;2022-07-06T11:02:14;8.30;;;3.90;;
57313;SDS011;53202;50.976;18.216;2022-07-06T11:04:57;8.20;;;3.50;;
57313;SDS011;53202;50.976;18.216;2022-07-06T11:07:48;3.90;;;3.10;;
57313;SDS011;53202;50.976;18.216;2022-07-06T11:10:28;7.00;;;3.10;;
57313;SDS011;53202;50.976;18.216;2022-07-06T11:13:28;7.90;;;3.90;;
57313;SDS011;53202;50.976;18.216;2022-07-06T11:16:08;6.80;;;3.30;;
57313;SDS011;53202;50.976;18.216;2022-07-06T11:18:50;12.90;;;3.50;;
57313;SDS011;53202;50.976;18.216;2022-07-06T11:21:44;6.20;;;3.80;;
57313;SDS011;53202;50.976;18.216;2022-07-06T11:24:29;5.10;;;3.10;;
57313;SDS011;53202;50.976;18.216;2022-07-06T11:27:09;6.60;;;3.00;;
57313;SDS011;53202;50.976;18.216;2022-07-06T11:29:50;8.40;;;3.40;;
57313;SDS011;53202;50.976;18.216;2022-07-06T11:32:30;10.20;;;3.60;;
57313;SDS011;53202;50.976;18.216;2022-07-06T11:35:10;7.50;;;2.70;;
57313;SDS011;53202;50.976;18.216;2022-07-06T11:37:50;7.20;;;2.90;;
57313;SDS011;53202;50.976;18.216;2022-07-06T11:40:30;5.60;;;3.10;;
57313;SDS011;53202;50.976;18.216;2022-07-06T11:43:10;6.80;;;2.70;;
57313;SDS011;53202;50.976;18.216;2022-07-06T11:45:51;6.00;;;2.70;;
57313;SDS011;53202;50.976;18.216;2022-07-06T11:48:31;18.40;;;2.70;;
57313;SDS011;53202;50.976;18.216;2022-07-06T11:51:11;7.40;;;2.50;;
57313;SDS011;53202;50.976;18.216;2022-07-06T11:53:52;4.10;;;2.50;;
57313;SDS011;53202;50.976;18.216;2022-07-06T11:56:31;6.30;;;2.60;;
57313;SDS011;53202;50.976;18.216;2022-07-06T11:59:12;5.40;;;2.20;;
57313;SDS011;53202;50.976;18.216;2022-07-06T12:01:59;5.60;;;2.10;;
57313;SDS011;53202;50.976;18.216;2022-07-06T12:04:43;4.00;;;2.20;;
57313;SDS011;53202;50.976;18.216;2022-07-06T12:07:22;5.90;;;2.00;;
57313;SDS011;53202;50.976;18.216;2022-07-06T12:10:03;5.20;;;2.30;;
57313;SDS011;53202;50.976;18.216;2022-07-06T12:12:43;6.10;;;2.60;;
57313;SDS011;53202;50.976;18.216;2022-07-06T12:15:26;4.00;;;1.90;;
57313;SDS011;53202;50.976;18.216;2022-07-06T12:18:04;6.20;;;2.20;;
57313;SDS011;53202;50.976;18.216;2022-07-06T12:20:44;3.70;;;2.10;;
57313;SDS011;53202;50.976;18.216;2022-07-06T12:23:37;9.30;;;2.00;;
57313;SDS011;53202;50.976;18.216;2022-07-06T12:26:15;5.80;;;2.10;;
57313;SDS011;53202;50.976;18.216;2022-07-06T12:29:04;4.20;;;2.10;;
57313;SDS011;53202;50.976;18.216;2022-07-06T12:31:49;7.40;;;1.90;;
57313;SDS011;53202;50.976;18.216;2022-07-06T12:34:26;4.90;;;1.70;;
57313;SDS011;53202;50.976;18.216;2022-07-06T12:37:06;2.90;;;1.80;;
57313;SDS011;53202;50.976;18.216;2022-07-06T12:39:46;3.90;;;1.40;;
57313;SDS011;53202;50.976;18.216;2022-07-06T12:42:26;8.40;;;1.90;;
57313;SDS011;53202;50.976;18.216;2022-07-06T12:45:07;6.70;;;1.80;;
57313;SDS011;53202;50.976;18.216;2022-07-06T12:48:03;9.40;;;2.40;;
57313;SDS011;53202;50.976;18.216;2022-07-06T12:50:47;15.70;;;2.00;;
57313;SDS011;53202;50.976;18.216;2022-07-06T12:53:27;14.90;;;3.40;;
57313;SDS011;53202;50.976;18.216;2022-07-06T12:56:09;13.80;;;3.90;;
57313;SDS011;53202;50.976;18.216;2022-07-06T12:58:56;17.40;;;3.80;;
57313;SDS011;53202;50.976;18.216;2022-07-06T13:01:45;25.30;;;4.80;;
57313;SDS011;53202;50.976;18.216;2022-07-06T13:04:29;21.80;;;4.60;;
57313;SDS011;53202;50.976;18.216;2022-07-06T13:07:17;12.10;;;4.10;;
57313;SDS011;53202;50.976;18.216;2022-07-06T13:09:59;15.90;;;4.00;;
57313;SDS011;53202;50.976;18.216;2022-07-06T13:12:39;14.30;;;4.20;;
57313;SDS011;53202;50.976;18.216;2022-07-06T13:15:20;10.40;;;3.70;;
57313;SDS011;53202;50.976;18.216;2022-07-06T13:18:00;24.50;;;5.20;;
57313;SDS011;53202;50.976;18.216;2022-07-06T13:20:40;7.50;;;4.20;;
57313;SDS011;53202;50.976;18.216;2022-07-06T13:23:21;8.90;;;3.50;;
57313;SDS011;53202;50.976;18.216;2022-07-06T13:26:01;10.60;;;3.40;;
57313;SDS011;53202;50.976;18.216;2022-07-06T13:28:41;12.00;;;4.00;;
57313;SDS011;53202;50.976;18.216;2022-07-06T13:31:21;7.60;;;3.30;;
57313;SDS011;53202;50.976;18.216;2022-07-06T13:34:02;8.60;;;3.40;;
57313;SDS011;53202;50.976;18.216;2022-07-06T13:36:42;7.70;;;3.00;;
57313;SDS011;53202;50.976;18.216;2022-07-06T13:39:22;28.90;;;4.60;;
57313;SDS011;53202;50.976;18.216;2022-07-06T13:42:04;269.30;;;40.30;;
57313;SDS011;53202;50.976;18.216;2022-07-06T13:44:44;4.40;;;2.70;;
57313;SDS011;53202;50.976;18.216;2022-07-06T13:47:24;4.80;;;2.50;;
57313;SDS011;53202;50.976;18.216;2022-07-06T13:50:05;4.20;;;2.50;;
57313;SDS011;53202;50.976;18.216;2022-07-06T13:52:45;3.50;;;1.70;;
57313;SDS011;53202;50.976;18.216;2022-07-06T13:55:25;3.60;;;1.70;;
57313;SDS011;53202;50.976;18.216;2022-07-06T13:58:06;6.50;;;2.00;;
57313;SDS011;53202;50.976;18.216;2022-07-06T14:00:46;4.70;;;1.60;;
57313;SDS011;53202;50.976;18.216;2022-07-06T14:03:26;5.30;;;1.60;;
57313;SDS011;53202;50.976;18.216;2022-07-06T14:06:07;6.90;;;1.60;;
57313;SDS011;53202;50.976;18.216;2022-07-06T14:08:48;3.30;;;1.70;;
57313;SDS011;53202;50.976;18.216;2022-07-06T14:11:27;3.90;;;1.40;;
57313;SDS011;53202;50.976;18.216;2022-07-06T14:14:08;3.80;;;1.30;;
57313;SDS011;53202;50.976;18.216;2022-07-06T14:16:48;8.60;;;1.60;;
57313;SDS011;53202;50.976;18.216;2022-07-06T14:19:28;4.20;;;2.60;;
57313;SDS011;53202;50.976;18.216;2022-07-06T14:22:08;2.60;;;1.30;;
57313;SDS011;53202;50.976;18.216;2022-07-06T14:24:49;3.00;;;1.30;;
57313;SDS011;53202;50.976;18.216;2022-07-06T14:27:29;6.10;;;1.60;;
57313;SDS011;53202;50.976;18.216;2022-07-06T14:30:09;2.90;;;1.30;;
57313;SDS011;53202;50.976;18.216;2022-07-06T14:32:50;6.00;;;1.70;;
57313;SDS011;53202;50.976;18.216;2022-07-06T14:35:30;3.30;;;1.30;;
57313;SDS011;53202;50.976;18.216;2022-07-06T14:38:10;4.30;;;1.80;;
57313;SDS011;53202;50.976;18.216;2022-07-06T14:40:51;4.40;;;1.60;;
57313;SDS011;53202;50.976;18.216;2022-07-06T14:43:31;4.40;;;1.10;;
57313;SDS011;53202;50.976;18.216;2022-07-06T14:46:11;3.40;;;1.50;;
57313;SDS011;53202;50.976;18.216;2022-07-06T14:48:51;4.60;;;1.80;;
57313;SDS011;53202;50.976;18.216;2022-07-06T14:51:32;4.60;;;1.20;;
57313;SDS011;53202;50.976;18.216;2022-07-06T14:54:12;8.90;;;1.90;;
57313;SDS011;53202;50.976;18.216;2022-07-06T14:56:52;4.80;;;1.70;;
57313;SDS011;53202;50.976;18.216;2022-07-06T14:59:33;7.70;;;1.60;;
57313;SDS011;53202;50.976;18.216;2022-07-06T15:02:13;3.70;;;1.10;;
57313;SDS011;53202;50.976;18.216;2022-07-06T15:04:53;3.80;;;1.50;;
57313;SDS011;53202;50.976;18.216;2022-07-06T15:07:34;5.20;;;1.60;;
57313;SDS011;53202;50.976;18.216;2022-07-06T15:10:14;3.70;;;1.20;;
57313;SDS011;53202;50.976;18.216;2022-07-06T15:12:54;3.00;;;1.30;;
57313;SDS011;53202;50.976;18.216;2022-07-06T15:15:35;3.60;;;1.70;;
57313;SDS011;53202;50.976;18.216;2022-07-06T15:18:15;7.60;;;1.70;;
57313;SDS011;53202;50.976;18.216;2022-07-06T15:20:55;4.40;;;1.20;;
57313;SDS011;53202;50.976;18.216;2022-07-06T15:23:35;3.50;;;1.50;;
57313;SDS011;53202;50.976;18.216;2022-07-06T15:26:16;5.20;;;1.60;;
57313;SDS011;53202;50.976;18.216;2022-07-06T15:28:56;6.70;;;1.50;;
57313;SDS011;53202;50.976;18.216;2022-07-06T15:31:36;4.70;;;1.80;;
57313;SDS011;53202;50.976;18.216;2022-07-06T15:34:16;7.80;;;1.80;;
57313;SDS011;53202;50.976;18.216;2022-07-06T15:36:56;5.00;;;1.30;;
57313;SDS011;53202;50.976;18.216;2022-07-06T15:39:37;4.50;;;1.60;;